Latest Weather Observations for Grafton AgRS

IDN60801

Issued at 6:42 pm EDT Sunday 15 December 2019 (issued every 10 minutes, with the page automatically refreshed every 10 minutes)

About weather observations | Map of weather stations | Latest weather observations for NSW | Other Formats
Station Details ID: 058077 Name: GRAFTON RESEARCH STN Lat: -29.62 Lon: 152.96 Height: 25.0 m
Data from the previous 72 hours. | See also: Recent months at Grafton AgRS
Date/Time
EDT
Temp
°C
App
Temp
°C
Dew
Point
°C
Rel
Hum
%
Delta-T
°C
Wind Press
QNH
hPa
Press
MSL
hPa
Rain since
9am
mm
Dir  Spd
km/h
Gust
km/h
Spd
kts
Gust
kts
15/06:30pm 28.7 29.1 20.7 62 5.3 ENE 19 28 10 15 - - -
15/06:00pm 29.0 29.4 20.7 61 5.5 E 19 30 10 16 - - -
15/05:30pm 29.8 30.7 20.9 59 5.9 ENE 17 26 9 14 - - -
15/05:00pm 30.4 31.1 21.2 58 6.2 ENE 19 32 10 17 - - -
15/04:30pm 30.5 30.5 21.0 57 6.3 ENE 22 35 12 19 - - -
15/04:00pm 31.7 31.1 21.2 53 7.1 ENE 26 35 14 19 - - -
15/03:30pm 32.9 33.5 21.1 50 7.9 ENE 19 32 10 17 - - -
15/03:00pm 33.1 33.5 20.9 48 8.2 ENE 20 32 11 17 - - -
15/02:30pm 33.7 33.5 21.2 48 8.4 ENE 24 35 13 19 - - -
15/02:00pm 33.8 34.2 20.6 46 8.9 E 19 32 10 17 - - -
15/01:30pm 34.1 34.8 19.7 42 9.5 ESE 15 26 8 14 - - -
15/01:00pm 33.2 34.5 19.3 44 9.1 SE 11 20 6 11 - - -
15/12:30pm 32.7 34.0 20.2 47 8.3 ESE 13 22 7 12 - - -
15/12:00pm 31.3 32.9 19.9 50 7.5 SE 11 15 6 8 - - -
15/11:30am 30.4 32.3 19.7 52 7.0 WNW 9 15 5 8 - - -
15/11:00am 29.6 31.6 19.9 56 6.4 WNW 9 17 5 9 - - -
15/10:30am 28.2 30.6 20.0 61 5.4 NNW 7 11 4 6 - - -
15/10:00am 28.4 31.4 21.2 65 4.8 NW 7 11 4 6 - - -
15/09:30am 28.0 31.0 21.3 67 4.5 S 7 17 4 9 - - -
15/09:00am 27.2 31.1 21.9 73 3.6 SSE 4 13 2 7 - - -
15/08:30am 25.0 27.9 21.1 79 2.6 W 7 11 4 6 - - -
15/08:00am 23.9 26.9 21.2 85 1.8 WSW 7 9 4 5 - - -
15/07:30am 22.6 25.4 20.9 90 1.1 SW 7 9 4 5 - - -
15/07:00am 21.9 24.1 20.4 91 1.0 SW 9 11 5 6 - - -
15/06:30am 21.8 24.2 20.1 90 1.1 SW 7 9 4 5 - - -
15/06:00am 22.1 24.8 20.2 89 1.2 WSW 6 9 3 5 - - -
15/05:30am 22.2 26.1 20.3 89 1.2 CALM 0 0 0 0 - - -
15/05:00am 22.3 26.2 20.4 89 1.2 CALM 0 0 0 0 - - -
15/04:30am 22.4 26.5 20.7 90 1.1 CALM 0 0 0 0 - - -
15/04:00am 22.2 26.2 20.5 90 1.1 CALM 0 2 0 1 - - -
15/03:30am 22.4 26.5 20.7 90 1.1 CALM 0 0 0 0 - - -
15/03:00am 22.2 25.8 20.5 90 1.1 SSW 2 6 1 3 - - -
15/02:30am 21.8 24.6 20.4 92 0.9 WSW 6 7 3 4 - - -
15/02:00am 21.5 24.1 20.1 92 0.9 WSW 6 7 3 4 - - -
15/01:30am 21.5 24.1 20.1 92 0.9 SW 6 7 3 4 - - -
15/01:00am 21.7 24.4 20.2 91 1.0 SW 6 7 3 4 - - -
15/12:30am 21.9 24.6 20.2 90 1.1 SSE 6 7 3 4 - - -
15/12:00am 22.2 24.9 20.3 89 1.2 SSE 6 7 3 4 - - -
 
Date/Time
EDT
Temp
°C
App
Temp
°C
Dew
Point
°C
Rel
Hum
%
Delta-T
°C
Wind Press
QNH
hPa
Press
MSL
hPa
Rain since
9am
mm
Dir  Spd
km/h
Gust
km/h
Spd
kts
Gust
kts
14/11:30pm 22.3 25.0 20.6 90 1.1 SSE 7 9 4 5 - - -
14/11:00pm 22.6 25.3 20.7 89 1.2 SE 7 9 4 5 - - -
14/10:30pm 23.0 25.7 20.7 87 1.5 SSE 7 11 4 6 - - -
14/10:00pm 23.1 25.5 20.8 87 1.5 SE 9 9 5 5 - - -
14/09:30pm 23.3 26.1 20.4 84 1.9 SE 6 9 3 5 - - -
14/09:00pm 23.8 26.1 20.7 83 2.0 ESE 9 11 5 6 - - -
14/08:30pm 24.1 26.3 20.4 80 2.4 E 9 13 5 7 - - -
14/08:00pm 24.6 26.8 20.3 77 2.8 E 9 17 5 9 - - -
14/07:30pm 25.1 26.2 19.7 72 3.5 ENE 13 20 7 11 - - -
14/07:00pm 25.9 26.4 19.3 67 4.2 ENE 15 20 8 11 - - -
14/06:30pm 26.6 26.7 19.2 64 4.8 ENE 17 26 9 14 - - -
14/06:00pm 27.9 29.1 19.9 61 5.2 ENE 13 24 7 13 - - -
14/05:30pm 28.5 29.4 20.0 60 5.6 ENE 15 26 8 14 - - -
14/05:00pm 29.0 29.4 19.9 58 6.0 ENE 17 26 9 14 - - -
14/04:30pm 29.3 29.1 19.3 55 6.5 ENE 19 30 10 16 - - -
14/04:00pm 30.3 30.9 20.2 54 6.7 NE 17 28 9 15 - - -
14/03:30pm 30.8 30.8 19.8 52 7.2 NE 19 33 10 18 - - -
14/03:00pm 30.6 29.9 19.6 51 7.2 E 22 33 12 18 - - -
14/02:50pm 31.3 29.6 19.9 50 7.5 ESE 28 39 15 21 - - -
14/02:30pm 31.8 32.1 18.0 43 8.9 ENE 13 20 7 11 - - -
14/02:00pm 32.1 32.6 18.3 44 8.9 ESE 13 22 7 12 - - -
14/01:30pm 32.0 32.0 18.2 43 8.9 NE 15 24 8 13 - - -
14/01:00pm 30.4 30.4 17.1 44 8.4 ENE 13 22 7 12 - - -
14/12:30pm 29.7 30.5 18.2 50 7.4 ENE 11 22 6 12 - - -
14/12:00pm 30.1 31.3 18.2 49 7.6 E 9 20 5 11 - - -
14/11:30am 29.2 30.7 18.0 51 7.1 E 7 13 4 7 - - -
14/11:00am 28.0 29.5 18.1 55 6.3 WSW 7 11 4 6 - - -
14/10:30am 28.5 29.9 18.6 55 6.4 W 9 15 5 8 - - -
14/10:00am 27.7 30.0 19.5 61 5.3 NE 6 11 3 6 - - -
14/09:30am 26.0 27.1 17.9 61 5.1 WNW 9 15 5 8 - - -
14/09:00am 25.0 26.7 18.4 66 4.2 SSW 7 13 4 7 - - -
14/08:30am 24.6 25.8 18.3 68 4.0 SSW 9 11 5 6 - - -
14/08:00am 24.0 25.8 18.2 70 3.6 WNW 6 9 3 5 - - -
14/07:30am 22.5 23.8 18.5 78 2.5 W 9 11 5 6 - - -
14/07:00am 21.4 24.3 19.0 86 1.5 NW 2 7 1 4 - - -
14/06:30am 20.3 23.2 18.2 88 1.3 CALM 0 0 0 0 - - -
14/06:00am 20.0 22.9 18.3 90 1.1 CALM 0 0 0 0 - - -
14/05:30am 20.0 22.8 18.0 88 1.2 CALM 0 0 0 0 - - -
14/05:00am 20.4 21.8 17.8 85 1.6 NW 7 11 4 6 - - -
14/04:30am 20.5 22.1 17.9 85 1.6 NNW 6 9 3 5 - - -
14/04:00am 20.7 22.2 18.1 85 1.6 NNW 7 9 4 5 - - -
14/03:30am 20.5 22.0 18.1 86 1.5 NNW 7 9 4 5 - - -
14/03:00am 20.8 22.6 18.2 85 1.6 NNW 6 7 3 4 - - -
14/02:30am 20.9 23.8 18.1 84 1.7 CALM 0 0 0 0 - - -
14/02:00am 20.9 23.8 18.1 84 1.7 CALM 0 6 0 3 - - -
14/01:30am 21.1 22.3 18.3 84 1.7 SW 9 11 5 6 - - -
14/01:00am 21.3 23.0 18.5 84 1.8 SW 7 9 4 5 - - -
14/12:30am 21.4 22.7 18.4 83 1.9 SW 9 13 5 7 - - -
14/12:00am 21.2 22.9 18.4 84 1.7 W 7 9 4 5 - - -
 
Date/Time
EDT
Temp
°C
App
Temp
°C
Dew
Point
°C
Rel
Hum
%
Delta-T
°C
Wind Press
QNH
hPa
Press
MSL
hPa
Rain since
9am
mm
Dir  Spd
km/h
Gust
km/h
Spd
kts
Gust
kts
13/11:30pm 21.1 24.0 18.3 84 1.7 CALM 0 0 0 0 - - -
13/11:00pm 21.1 24.0 18.1 83 1.9 CALM 0 0 0 0 - - -
13/10:30pm 21.1 23.9 17.9 82 2.0 CALM 0 0 0 0 - - -
13/10:00pm 21.2 23.2 17.8 81 2.1 E 4 7 2 4 - - -
13/09:30pm 21.4 22.4 17.8 80 2.2 ESE 9 13 5 7 - - -
13/09:00pm 21.7 22.8 18.1 80 2.2 SSE 9 13 5 7 - - -
13/08:30pm 21.9 22.2 17.9 78 2.5 SSE 13 20 7 11 - - -
13/08:00pm 22.3 22.8 18.3 78 2.5 SSE 13 17 7 9 - - -
13/07:30pm 22.5 23.1 18.5 78 2.5 ESE 13 19 7 10 - - -
13/07:00pm 22.7 23.6 18.3 76 2.8 SE 11 17 6 9 - - -
13/06:30pm 22.7 23.3 18.5 77 2.6 ESE 13 19 7 10 - - -
13/06:00pm 22.8 22.9 18.3 76 2.8 ESE 15 19 8 10 - - -
13/05:30pm 23.3 22.7 18.4 74 3.1 ESE 19 24 10 13 - - -
13/05:00pm 23.9 23.9 19.0 74 3.1 SE 17 24 9 13 - - -
13/04:30pm 23.8 24.1 18.7 73 3.2 ESE 15 20 8 11 - - -
13/04:00pm 23.9 24.7 19.0 74 3.1 SE 13 19 7 10 - - -
13/03:30pm 23.5 24.0 19.2 77 2.7 SE 15 20 8 11 - - -
13/03:00pm 24.0 24.2 18.6 72 3.4 SSE 15 22 8 12 - - -
13/02:30pm 24.1 24.2 19.2 74 3.1 S 17 22 9 12 - - -
13/02:00pm 23.7 23.1 18.8 74 3.1 SSW 20 26 11 14 - - -
13/01:30pm 24.3 24.0 19.1 73 3.3 SSW 19 26 10 14 - - -
13/01:00pm 25.2 25.0 19.8 72 3.5 SSE 20 26 11 14 - - -
13/12:30pm 23.5 23.3 19.4 78 2.6 SE 19 22 10 12 - - -
13/12:00pm 22.6 22.4 19.4 82 2.0 SE 19 22 10 12 - - -
13/11:30am 21.5 21.1 18.9 85 1.6 SSE 19 26 10 14 - - -
13/11:00am 21.8 21.2 18.8 83 1.9 SSE 20 26 11 14 - - -
13/10:30am 21.8 20.9 19.0 84 1.8 SSE 22 28 12 15 - - -
13/10:00am 22.0 21.6 19.4 85 1.7 SSE 20 26 11 14 - - -
13/09:30am 22.0 22.0 20.1 89 1.2 SSE 20 28 11 15 - - -
13/09:00am 22.0 22.0 20.1 89 1.2 SSE 20 28 11 15 - - -
13/08:30am 22.1 22.2 20.0 88 1.3 SSE 19 24 10 13 - - -
13/08:00am 21.8 23.1 20.1 90 1.1 SSE 13 17 7 9 - - -
13/07:30am 21.5 22.7 20.0 91 1.0 SE 13 17 7 9 - - -
13/07:00am 21.3 22.5 19.9 92 0.9 SSE 13 17 7 9 - - -
13/06:30am 21.2 22.9 20.2 94 0.6 SSE 11 15 6 8 - - -
13/06:00am 21.1 22.4 20.1 94 0.6 SSE 13 17 7 9 - - -
13/05:30am 21.0 22.4 20.3 96 0.5 SSE 13 17 7 9 - - -
13/05:00am 20.8 23.2 20.0 95 0.5 S 7 9 4 5 - - -
13/04:30am 21.0 22.1 19.7 92 0.8 SE 13 19 7 10 - - -
13/04:00am 21.9 24.2 19.5 86 1.5 SSW 6 9 3 5 - - -
13/03:30am 21.9 23.6 19.3 85 1.7 S 9 11 5 6 - - -
13/03:00am 21.9 23.3 19.5 86 1.5 S 11 15 6 8 - - -
13/02:30am 21.9 23.3 19.5 86 1.5 SSE 11 15 6 8 - - -
13/02:00am 22.0 23.9 19.7 87 1.5 S 9 13 5 7 - - -
13/01:30am 22.2 24.4 19.6 85 1.7 SSW 7 11 4 6 - - -
13/01:00am 22.2 24.4 19.6 85 1.7 SW 7 11 4 6 - - -
13/12:30am 22.3 23.8 19.7 85 1.7 S 11 15 6 8 - - -
13/12:00am 22.4 24.7 19.9 86 1.6 SSW 7 11 4 6 - - -
 
Date/Time
EDT
Temp
°C
App
Temp
°C
Dew
Point
°C
Rel
Hum
%
Delta-T
°C
Wind Press
QNH
hPa
Press
MSL
hPa
Rain since
9am
mm
Dir  Spd
km/h
Gust
km/h
Spd
kts
Gust
kts
12/11:30pm 22.3 23.8 19.8 86 1.6 S 11 17 6 9 - - -
12/11:00pm 22.3 23.2 20.0 87 1.5 S 15 20 8 11 - - -
12/10:30pm 22.3 22.4 20.0 87 1.5 SSE 19 24 10 13 - - -
12/10:00pm 22.5 23.5 20.2 87 1.5 S 15 20 8 11 - - -
12/09:30pm 22.6 24.9 20.7 89 1.2 S 9 15 5 8 - - -
12/09:00pm 22.6 24.8 20.5 88 1.4 S 9 13 5 7 - - -
12/08:30pm 23.5 25.1 20.0 81 2.3 ESE 11 17 6 9 - - -
12/08:00pm 23.7 24.4 19.6 78 2.6 SE 15 20 8 11 - - -
12/07:30pm 23.7 23.5 19.4 77 2.8 ESE 19 26 10 14 - - -
12/07:00pm 24.1 23.4 19.4 75 3.0 ESE 22 32 12 17 - - -

Other formats

Comma delimited format used in spreadsheet applications
http://www.bom.gov.au/fwo/IDN60801/IDN60801.95571.axf

JavaScript Object Notation format (JSON) in row-major order
http://www.bom.gov.au/fwo/IDN60801/IDN60801.95571.json

Data quality

Most of these data are generated automatically and are frequently updated. Quality checks on data are not normally performed. It is possible for incorrect values to appear. Refer to information at About Latest Weather Observations and please check the disclaimer before using these data.